Airfield :
LOGIN :

Register | Disclaimer

   EN    FR    IT 

 










Legend :    VFR   Marginal VFR   IFR   Intensive IFR   Very Intensive IFR
Visi :
Ceiling :
>= 8 km
>= 3000ft
5 to 8 km
1000 to 3000 ft
1500m to 5 km
500 to 1000 ft
800 to 1500m
200 to 500 ft
< 800m
< 200 ft
Symbols :   Thunderstorms  Fog  Heavy snow  Heavy precipitations  Wind > 20 kt
SIGMETs :     Misc.  Thunderstorms  Icing  Turbulence  Mountain Waves  Volcanic Ashes






- Airport Elevation : 291 ft
- IATA code : ORY


LFPO - Paris-Orly

CURRENT METAR :
  • 211030Z 03006KT 340V100 9999 BKN025 BKN036 23/18 Q1010 NOSIG

EXPIRED METARs :
  • 211000Z 34007KT 300V010 9999 BKN018 BKN040 22/18 Q1010 NOSIG
  • 210930Z 33007KT 240V010 9999 SCT020 BKN039 22/18 Q1010 NOSIG
  • 210900Z 32009KT 9999 FEW016TCU SCT018 BKN038 22/18 Q1010 NOSIG
  • 210830Z 33007KT 290V350 9999 FEW016TCU SCT017 BKN038 21/18 Q1009 NOSIG
  • 210800Z 33008KT 300V360 9999 BKN017 BKN040 21/19 Q1009 NOSIG
  • 210730Z 34006KT 300V360 9999 BKN013 22/19 Q1009 BECMG BKN015
  • 210700Z 32007KT 290V350 9999 SCT013 SCT080 BKN260 22/19 Q1008 TEMPO BKN014
  • 210630Z 30005KT 9999 SCT012 SCT080 21/19 Q1008 NOSIG
  • 210600Z 28004KT 250V320 9999 SCT007 SCT076 20/19 Q1008 NOSIG

TAF TAF LFPO
Valid from the 21 at 06:00 until the 22 at 12:00 UTC


210500Z 2106/2212 VRB03KT 9999 SCT015 BKN020
PROB40
TEMPO 2106/2108 BKN008
BECMG 2108/2111 32005KT BKN025
PROB30
TEMPO 2109/2111 -RA BKN015
PROB30
TEMPO 2113/2115 -SHRA
ATIS : +33 1 49 75 65 80



MET'MAP, your aeronautical weather chart ! - Copyright ORBIFLY December 2007 - Disclaimer

ORBIFLY MET'MAP TEAM :

Programming & Development : Alexandra Zaïnal
Original concept : Baudouin d'Aumeries
Technical & hardware support : Manuel Goepfert
Assistance : Marc-Olivier Méhu




SOURCES & CREDITS :

   NOAA